Terminal Aerodrome Forecast
Issued by NWS Cleveland, OH

Home | Current Version | Previous Version | Graphics & Text | Print | Product List | Glossary On
Versions: 1 2 3 4 5 6 7 8 9 10 11 12 13 14
000
FTUS41 KCLE 261422 AAB
TAFTOL
TAF AMD
KTOL 261422Z 2614/2712 06007KT P6SM SCT015
      TEMPO 2615/2617 BKN020
     FM262100 03005KT P6SM SKC=

USA.gov is the U.S. government's official web portal to all federal, state and local government web resources and services.